Time;durP1;ratioP1;P1;durP2;ratioP2;P2;SDS_P1;SDS_P2;PMS_P1;PMS_P2;Temp;Humidity;BMP_temperature;BMP_pressure;BME280_temperature;BME280_humidity;BME280_pressure;Samples;Min_cycle;Max_cycle;Signal;HPM_P1;HPM_P2
2022/09/07 00:00:15;;;;;;;5.53;2.80;;;;;;;17.20;61.28;101572.72;4998809;28;20198;-74
2022/09/07 00:02:41;;;;;;;3.73;2.47;;;;;;;17.17;60.96;101567.56;5009491;28;20206;-73
2022/09/07 00:05:07;;;;;;;5.13;2.60;;;;;;;17.16;61.22;101569.28;5010058;28;20186;-73
2022/09/07 00:07:32;;;;;;;3.97;2.53;;;;;;;17.13;61.39;101568.41;5007534;28;20278;-73
2022/09/07 00:09:58;;;;;;;4.17;2.90;;;;;;;17.11;61.67;101565.81;5009590;28;20194;-73
2022/09/07 00:12:23;;;;;;;3.10;2.80;;;;;;;17.13;61.18;101569.25;5009291;28;20253;-73
2022/09/07 00:14:49;;;;;;;4.37;2.60;;;;;;;17.16;61.19;101576.16;4975787;28;20712;-73
2022/09/07 00:17:14;;;;;;;5.40;2.70;;;;;;;17.13;61.28;101568.41;5009118;28;20210;-73
2022/09/07 00:19:40;;;;;;;6.77;2.97;;;;;;;17.10;61.57;101569.25;5008543;28;20262;-73
2022/09/07 00:22:05;;;;;;;5.00;2.70;;;;;;;17.09;61.74;101567.50;5009262;28;20217;-73
2022/09/07 00:24:31;;;;;;;4.70;2.73;;;;;;;17.11;61.31;101570.97;4991935;28;20199;-74
2022/09/07 00:26:56;;;;;;;4.27;2.80;;;;;;;17.08;61.52;101572.69;5009462;28;20179;-73
2022/09/07 00:29:22;;;;;;;4.23;2.70;;;;;;;17.09;61.60;101579.59;5009323;28;20670;-73
2022/09/07 00:31:48;;;;;;;3.07;2.77;;;;;;;17.09;61.48;101574.41;5009459;28;20580;-73
2022/09/07 00:34:13;;;;;;;5.40;2.70;;;;;;;17.06;61.64;101564.91;5000185;28;20692;-73
2022/09/07 00:36:39;;;;;;;6.27;2.67;;;;;;;17.06;61.44;101567.50;5008917;28;23202;-73
2022/09/07 00:39:05;;;;;;;9.77;2.97;;;;;;;17.06;61.36;101574.38;5006692;28;20197;-73
2022/09/07 00:41:31;;;;;;;3.87;2.90;;;;;;;17.05;61.45;101563.19;4991486;28;20211;-73
2022/09/07 00:44:17;;;;;;;6.13;2.70;;;;;;;17.04;61.37;101568.34;5008286;28;20183;-73
2022/09/07 00:46:43;;;;;;;2.93;2.63;;;;;;;17.04;61.43;101556.25;5004608;28;20218;-74
2022/09/07 00:49:14;;;;;;;4.73;3.00;;;;;;;17.04;61.34;101550.25;5005924;28;20634;-73
2022/09/07 00:51:56;;;;;;;4.33;2.77;;;;;;;17.03;61.56;101559.72;5007323;28;20465;-73
2022/09/07 00:54:29;;;;;;;2.97;2.67;;;;;;;17.00;61.55;101541.56;5008379;28;20195;-73
2022/09/07 00:56:55;;;;;;;5.30;2.60;;;;;;;16.98;61.46;101553.66;4987544;28;20219;-73
2022/09/07 00:59:25;;;;;;;3.37;2.70;;;;;;;17.00;61.43;101543.31;5008848;28;20191;-73
2022/09/07 01:01:52;;;;;;;6.27;2.60;;;;;;;16.99;61.63;101551.94;4988257;28;20199;-73
2022/09/07 01:04:19;;;;;;;3.40;2.37;;;;;;;16.96;61.38;101544.16;5009389;28;20188;-73
2022/09/07 01:06:44;;;;;;;4.20;2.50;;;;;;;16.97;61.20;101540.69;5002401;28;20629;-73
2022/09/07 01:09:21;;;;;;;5.80;2.90;;;;;;;16.94;61.21;101538.13;5009040;28;20241;-73
2022/09/07 01:11:50;;;;;;;3.90;2.87;;;;;;;16.92;61.04;101538.13;5004573;28;20221;-73
2022/09/07 01:14:23;;;;;;;5.43;2.90;;;;;;;16.93;60.99;101545.00;5008057;28;20187;-73
2022/09/07 01:17:15;;;;;;;4.73;2.50;;;;;;;16.89;61.09;101538.09;5007887;28;20771;-73
2022/09/07 01:20:03;;;;;;;4.43;2.70;;;;;;;16.92;61.17;101534.66;5006167;28;20183;-74
2022/09/07 01:22:40;;;;;;;3.87;2.53;;;;;;;16.93;60.79;101538.94;4992109;28;20712;-74
2022/09/07 01:25:16;;;;;;;3.53;2.50;;;;;;;16.91;60.70;101536.34;5002257;28;20206;-75
2022/09/07 01:28:06;;;;;;;2.97;2.60;;;;;;;16.90;60.70;101526.03;5010208;28;20183;-75
2022/09/07 01:30:36;;;;;;;4.87;2.73;;;;;;;16.89;60.88;101526.84;4994080;28;20687;-75
2022/09/07 01:33:08;;;;;;;4.33;2.73;;;;;;;16.92;60.44;101527.75;5007441;28;20222;-74
2022/09/07 01:35:49;;;;;;;4.53;2.83;;;;;;;16.92;60.27;101517.41;5011324;28;20187;-74
2022/09/07 01:39:00;;;;;;;3.60;2.27;;;;;;;16.91;60.47;101520.81;5008615;28;20199;-74
2022/09/07 01:41:46;;;;;;;4.17;2.17;;;;;;;16.90;60.94;101520.84;4932884;29;20220;-73
2022/09/07 01:44:38;;;;;;;2.93;2.50;;;;;;;16.88;60.40;101515.66;5006405;28;20684;-74
2022/09/07 01:47:10;;;;;;;6.40;2.60;;;;;;;16.87;60.07;101505.31;5009071;28;20561;-74
2022/09/07 01:49:41;;;;;;;5.97;2.93;;;;;;;16.84;60.99;101511.31;5007559;28;20207;-74
2022/09/07 01:52:14;;;;;;;4.33;2.87;;;;;;;16.84;60.77;101500.97;4990294;28;20247;-74
2022/09/07 01:55:15;;;;;;;3.70;2.57;;;;;;;16.84;60.56;101503.56;5007105;28;20192;-73
2022/09/07 01:57:59;;;;;;;5.10;2.63;;;;;;;16.86;60.41;101501.84;4992689;28;20232;-74
2022/09/07 02:00:25;;;;;;;7.03;2.40;;;;;;;16.84;60.53;101497.50;4989301;28;20259;-73
2022/09/07 02:02:58;;;;;;;4.03;2.67;;;;;;;16.84;60.13;101495.81;5010920;28;20310;-73
2022/09/07 02:05:30;;;;;;;5.27;2.90;;;;;;;16.82;60.45;101483.72;4990781;28;20261;-72
2022/09/07 02:08:04;;;;;;;5.70;2.70;;;;;;;16.81;60.61;101487.19;5010546;28;20202;-73
2022/09/07 02:10:38;;;;;;;3.93;2.40;;;;;;;16.81;60.20;101479.41;5007721;28;20241;-73
2022/09/07 02:13:11;;;;;;;3.40;2.60;;;;;;;16.81;60.42;101480.25;5011671;28;20681;-73
2022/09/07 02:15:50;;;;;;;4.20;2.60;;;;;;;16.82;60.10;101488.91;5008705;28;20551;-72
2022/09/07 02:18:19;;;;;;;3.20;2.70;;;;;;;16.80;60.69;101488.88;4999035;28;20297;-73
2022/09/07 02:20:51;;;;;;;3.17;2.60;;;;;;;16.77;60.19;101491.44;4990585;28;20183;-73
2022/09/07 02:23:24;;;;;;;3.70;2.43;;;;;;;16.78;60.11;101500.97;5008813;28;20227;-73
2022/09/07 02:26:12;;;;;;;8.33;2.90;;;;;;;16.78;60.29;101494.91;4991147;28;20611;-73
2022/09/07 02:28:38;;;;;;;4.97;2.50;;;;;;;16.76;60.28;101492.31;5025095;28;20249;-73
2022/09/07 02:31:05;;;;;;;3.40;2.47;;;;;;;16.76;60.81;101501.81;5008051;28;20207;-73
2022/09/07 02:33:30;;;;;;;4.13;2.60;;;;;;;16.74;60.52;101499.22;5011309;28;20209;-73
2022/09/07 02:35:56;;;;;;;4.33;2.90;;;;;;;16.74;60.95;101498.34;4991117;28;20187;-73
2022/09/07 02:38:23;;;;;;;7.50;2.90;;;;;;;16.73;60.53;101489.72;5010816;28;20215;-73
2022/09/07 02:40:58;;;;;;;5.13;3.00;;;;;;;16.70;61.22;101497.47;5009113;28;20187;-72
2022/09/07 02:43:25;;;;;;;4.93;2.60;;;;;;;16.69;61.01;101493.16;5010760;28;20186;-73
2022/09/07 02:45:56;;;;;;;3.40;2.87;;;;;;;16.70;60.70;101488.81;5010093;28;20698;-73
2022/09/07 02:48:48;;;;;;;3.10;2.80;;;;;;;16.68;61.28;101495.72;5010667;28;20246;-72
2022/09/07 02:51:31;;;;;;;4.10;2.50;;;;;;;16.67;61.13;101494.00;5009298;28;20194;-72
2022/09/07 02:54:12;;;;;;;5.27;2.70;;;;;;;16.65;60.91;101488.81;5009433;28;20686;-73
2022/09/07 02:57:03;;;;;;;4.97;2.97;;;;;;;16.66;61.23;101489.66;5009110;28;20218;-72
2022/09/07 02:59:38;;;;;;;5.07;2.90;;;;;;;16.64;61.49;101481.03;5007255;28;20190;-72
2022/09/07 03:02:14;;;;;;;4.13;2.70;;;;;;;16.62;61.04;101490.53;4989752;28;20207;-71
2022/09/07 03:04:53;;;;;;;5.30;2.97;;;;;;;16.61;61.58;101493.94;5010853;28;20198;-72
2022/09/07 03:07:42;;;;;;;4.10;2.90;;;;;;;16.59;61.83;101482.75;5007718;28;20189;-72
2022/09/07 03:10:08;;;;;;;4.23;2.80;;;;;;;16.58;61.92;101481.03;5008624;28;20217;-72
2022/09/07 03:12:43;;;;;;;5.30;2.90;;;;;;;16.56;62.02;101474.97;5006935;28;20767;-72
2022/09/07 03:15:12;;;;;;;3.63;2.70;;;;;;;16.53;62.09;101474.97;5009654;28;20186;-74
2022/09/07 03:17:38;;;;;;;5.67;2.90;;;;;;;16.52;62.08;101479.25;5009913;28;20748;-73
2022/09/07 03:20:04;;;;;;;5.37;3.17;;;;;;;16.50;62.09;101470.66;5010122;28;20191;-73
2022/09/07 03:22:32;;;;;;;4.50;3.03;;;;;;;16.52;61.93;101468.03;4992156;28;20338;-73
2022/09/07 03:24:57;;;;;;;4.07;3.03;;;;;;;16.50;61.76;101462.00;5010198;28;20182;-74
2022/09/07 03:27:23;;;;;;;6.60;2.70;;;;;;;16.51;62.00;101466.31;4992519;28;20681;-74
2022/09/07 03:29:48;;;;;;;10.90;3.27;;;;;;;16.51;61.96;101451.69;4976715;28;20187;-74
2022/09/07 03:32:13;;;;;;;4.90;2.97;;;;;;;16.48;62.58;101448.22;5009977;28;20206;-74
2022/09/07 03:34:39;;;;;;;6.00;3.50;;;;;;;16.45;61.98;101446.50;4991989;28;20290;-74
2022/09/07 03:37:04;;;;;;;4.43;3.13;;;;;;;16.46;61.95;101448.22;5005787;28;20198;-74
2022/09/07 03:39:30;;;;;;;7.53;3.27;;;;;;;16.47;62.13;101446.47;5009911;28;20665;-75
2022/09/07 03:41:56;;;;;;;7.50;3.00;;;;;;;16.44;62.59;101438.72;5009937;28;20203;-74
2022/09/07 03:44:21;;;;;;;4.67;3.03;;;;;;;16.43;62.63;101442.13;5009020;28;20179;-74
2022/09/07 03:46:47;;;;;;;5.33;2.93;;;;;;;16.43;62.76;101439.56;5009871;28;20191;-75
2022/09/07 03:49:14;;;;;;;5.67;3.20;;;;;;;16.40;62.45;101427.47;5009406;28;20190;-73
2022/09/07 03:51:40;;;;;;;4.03;3.00;;;;;;;16.42;62.61;101427.50;4992163;28;20222;-74
2022/09/07 03:54:05;;;;;;;4.20;3.17;;;;;;;16.40;62.33;101419.72;5009988;28;20187;-74
2022/09/07 03:56:31;;;;;;;5.43;3.30;;;;;;;16.40;62.83;101418.88;5009462;28;20190;-74
2022/09/07 03:58:56;;;;;;;6.20;3.20;;;;;;;16.38;63.15;101421.41;5010154;28;20222;-73
2022/09/07 04:01:24;;;;;;;4.87;3.43;;;;;;;16.38;63.06;101408.50;5008784;28;20284;-74
2022/09/07 04:03:51;;;;;;;5.23;3.10;;;;;;;16.37;62.98;101408.47;5009983;28;20221;-73
2022/09/07 04:06:17;;;;;;;4.17;3.33;;;;;;;16.37;62.72;101400.72;5008927;28;20175;-74
2022/09/07 04:08:43;;;;;;;5.50;3.17;;;;;;;16.37;62.74;101413.66;5009460;28;20198;-74
2022/09/07 04:11:12;;;;;;;5.80;3.27;;;;;;;16.34;63.30;101409.31;5009523;28;20555;-73
2022/09/07 04:13:37;;;;;;;5.13;2.97;;;;;;;16.34;62.88;101403.31;5007776;28;20183;-73
2022/09/07 04:16:16;;;;;;;4.37;3.20;;;;;;;16.34;62.48;101393.81;4991168;28;20214;-73
2022/09/07 04:18:42;;;;;;;3.57;2.97;;;;;;;16.33;62.51;101392.09;4990464;28;20214;-73
2022/09/07 04:21:08;;;;;;;3.27;2.93;;;;;;;16.34;62.73;101388.66;5006421;28;20203;-73
2022/09/07 04:23:36;;;;;;;3.70;2.73;;;;;;;16.33;63.03;101381.75;5009011;28;20720;-74
2022/09/07 04:26:01;;;;;;;4.50;3.20;;;;;;;16.36;62.35;101380.91;4996652;28;20183;-74
2022/09/07 04:28:27;;;;;;;4.50;3.40;;;;;;;16.36;62.57;101388.66;4991340;28;20657;-73
2022/09/07 04:30:52;;;;;;;6.07;3.27;;;;;;;16.36;62.61;101378.31;5009741;28;20578;-73
2022/09/07 04:33:18;;;;;;;9.97;3.80;;;;;;;16.37;62.20;101383.50;4990482;28;20203;-72
2022/09/07 04:35:43;;;;;;;4.03;3.10;;;;;;;16.39;62.18;101378.34;5009294;28;20729;-73
2022/09/07 04:38:14;;;;;;;3.60;3.00;;;;;;;16.41;61.82;101376.66;4991488;28;20230;-73
2022/09/07 04:40:39;;;;;;;6.43;3.40;;;;;;;16.43;61.62;101374.91;5009483;28;20201;-73
2022/09/07 04:43:06;;;;;;;5.53;3.10;;;;;;;16.41;61.56;101377.53;5006852;28;20203;-73
2022/09/07 04:45:35;;;;;;;6.47;3.00;;;;;;;16.47;61.58;101389.59;4991270;28;20191;-73
2022/09/07 04:48:01;;;;;;;4.20;2.93;;;;;;;16.45;61.73;101392.19;5009185;28;20314;-73
2022/09/07 04:50:26;;;;;;;4.23;3.13;;;;;;;16.47;61.49;101393.06;5008444;28;20237;-73
2022/09/07 04:52:52;;;;;;;4.20;2.90;;;;;;;16.48;61.37;101394.78;5010866;28;20713;-73
2022/09/07 04:55:18;;;;;;;4.30;2.73;;;;;;;16.52;61.11;101401.69;4993052;28;20187;-72
2022/09/07 04:57:43;;;;;;;6.03;3.43;;;;;;;16.53;61.21;101408.56;5010326;28;20291;-73
2022/09/07 05:00:10;;;;;;;4.83;3.27;;;;;;;16.50;61.29;101413.75;4995996;28;20202;-73
2022/09/07 05:02:36;;;;;;;4.93;3.07;;;;;;;16.52;61.19;101424.97;5009790;28;20195;-72
2022/09/07 05:05:03;;;;;;;5.13;3.43;;;;;;;16.54;61.23;101430.16;5009511;28;20194;-73
2022/09/07 05:07:29;;;;;;;6.00;3.63;;;;;;;16.55;61.21;101448.25;5008664;28;20655;-73
2022/09/07 05:09:56;;;;;;;5.33;2.97;;;;;;;16.53;61.11;101472.38;5008975;28;20199;-72
2022/09/07 05:12:22;;;;;;;5.50;3.00;;;;;;;16.45;61.66;101518.00;4990469;28;20207;-72
2022/09/07 05:14:47;;;;;;;4.40;2.80;;;;;;;16.35;62.10;101560.13;5004422;28;20542;-73
2022/09/07 05:17:12;;;;;;;6.27;3.33;;;;;;;16.19;63.08;101540.19;4995127;28;20588;-72
2022/09/07 05:19:38;;;;;;;4.63;3.40;;;;;;;16.16;63.32;101504.84;4986588;28;20217;-73
2022/09/07 05:22:03;;;;;;;5.20;2.90;;;;;;;16.16;63.63;101512.59;5009799;28;20242;-73
2022/09/07 05:24:29;;;;;;;5.60;3.27;;;;;;;16.06;64.15;101544.38;5006704;28;20195;-73
2022/09/07 05:26:54;;;;;;;4.77;3.30;;;;;;;16.00;64.68;101557.25;5008322;28;20723;-72
2022/09/07 05:29:20;;;;;;;5.00;2.87;;;;;;;16.03;64.31;101526.25;5006024;28;20195;-73
2022/09/07 05:31:47;;;;;;;5.67;3.30;;;;;;;16.06;64.19;101540.91;5008655;28;20214;-73
2022/09/07 05:34:14;;;;;;;4.80;3.10;;;;;;;16.04;64.52;101540.94;5008573;28;20246;-73
2022/09/07 05:36:40;;;;;;;7.03;3.53;;;;;;;16.05;64.79;101515.94;5005521;28;20199;-73
2022/09/07 05:39:07;;;;;;;7.07;3.33;;;;;;;16.04;65.06;101512.50;5010071;28;20215;-73
2022/09/07 05:41:32;;;;;;;5.20;3.23;;;;;;;16.07;65.15;101503.91;5005722;28;20234;-73
2022/09/07 05:43:58;;;;;;;6.03;3.13;;;;;;;16.07;64.92;101515.09;5010020;28;20666;-73
2022/09/07 05:46:24;;;;;;;3.57;2.83;;;;;;;16.02;65.24;101515.94;5005642;28;20694;-73
2022/09/07 05:48:49;;;;;;;3.37;3.07;;;;;;;16.05;65.23;101508.19;5007804;28;20203;-73
2022/09/07 05:51:15;;;;;;;8.43;3.80;;;;;;;16.06;65.39;101509.91;5006660;28;20283;-72
2022/09/07 05:53:43;;;;;;;4.53;3.40;;;;;;;16.09;65.42;101507.38;5008959;28;20206;-73
2022/09/07 05:56:09;;;;;;;6.67;3.40;;;;;;;16.07;65.84;101493.59;5006004;28;20266;-73
2022/09/07 05:58:35;;;;;;;4.13;3.10;;;;;;;16.11;65.86;101498.78;5007555;28;20210;-72
2022/09/07 06:01:04;;;;;;;5.17;3.30;;;;;;;15.98;65.98;101515.03;5008286;28;20270;-72
2022/09/07 06:03:30;;;;;;;8.90;3.37;;;;;;;15.98;66.89;101503.84;5008199;28;20277;-73
2022/09/07 06:06:03;;;;;;;5.83;3.30;;;;;;;15.97;66.93;101508.13;5006875;28;20302;-73
2022/09/07 06:08:29;;;;;;;6.30;2.97;;;;;;;15.97;66.85;101502.97;5009779;28;20642;-72
2022/09/07 06:10:55;;;;;;;4.90;3.17;;;;;;;15.98;67.17;101494.34;5011280;28;20192;-73
2022/09/07 06:13:21;;;;;;;4.97;3.23;;;;;;;15.99;68.08;101488.38;5007172;28;20199;-72
2022/09/07 06:15:46;;;;;;;7.20;3.43;;;;;;;16.01;68.25;101480.59;5008075;28;20195;-72
2022/09/07 06:18:12;;;;;;;4.10;3.03;;;;;;;16.01;67.04;101468.56;5007439;28;20203;-72
2022/09/07 06:20:37;;;;;;;3.57;2.40;;;;;;;16.00;67.02;101471.13;4992509;28;20278;-72
2022/09/07 06:23:03;;;;;;;6.40;2.93;;;;;;;16.02;66.98;101474.59;5009380;28;20227;-73
2022/09/07 06:25:28;;;;;;;5.00;3.60;;;;;;;16.03;66.81;101478.91;5010521;28;20199;-72
2022/09/07 06:27:54;;;;;;;5.40;3.27;;;;;;;16.05;66.95;101487.53;5007390;28;20247;-73
2022/09/07 06:30:20;;;;;;;7.67;3.40;;;;;;;16.06;67.04;101503.03;5010079;28;20187;-75
2022/09/07 06:32:46;;;;;;;4.70;3.33;;;;;;;16.10;66.35;101501.34;5009682;28;20203;-74
2022/09/07 06:35:13;;;;;;;6.33;3.53;;;;;;;16.19;66.24;101507.47;5009037;28;20601;-74
2022/09/07 06:37:39;;;;;;;5.57;3.43;;;;;;;16.21;67.03;101492.81;5008606;28;20207;-75
2022/09/07 06:40:06;;;;;;;3.70;2.67;;;;;;;16.28;66.59;101489.44;5008514;28;20703;-75
2022/09/07 06:42:31;;;;;;;5.23;3.10;;;;;;;16.28;66.69;101497.19;5011134;28;20579;-74
2022/09/07 06:44:57;;;;;;;6.30;2.80;;;;;;;16.32;66.72;101487.72;5007038;28;20183;-75
2022/09/07 06:47:23;;;;;;;4.33;3.50;;;;;;;16.37;66.49;101492.06;4992794;28;20546;-75
2022/09/07 06:49:48;;;;;;;3.93;3.20;;;;;;;16.42;67.01;101485.25;5008588;28;20714;-76
2022/09/07 06:52:14;;;;;;;4.80;3.40;;;;;;;16.44;68.23;101485.25;5007921;28;20212;-74
2022/09/07 06:54:39;;;;;;;4.67;3.27;;;;;;;16.47;67.23;101485.25;5009951;28;20187;-74
2022/09/07 06:57:07;;;;;;;4.27;3.53;;;;;;;16.51;66.76;101487.88;5010272;28;20282;-75
2022/09/07 06:59:34;;;;;;;5.83;3.50;;;;;;;16.55;66.58;101473.25;5011032;28;20221;-75
2022/09/07 07:01:59;;;;;;;5.43;3.53;;;;;;;16.57;66.61;101477.56;5010480;28;20222;-75
2022/09/07 07:04:25;;;;;;;6.63;3.60;;;;;;;16.60;66.87;101480.19;5010968;28;20686;-75
2022/09/07 07:06:50;;;;;;;7.23;3.87;;;;;;;16.66;66.55;101480.19;5009981;28;20229;-75
2022/09/07 07:09:16;;;;;;;7.00;4.03;;;;;;;16.71;66.52;101477.66;5010154;28;20187;-75
2022/09/07 07:11:43;;;;;;;6.93;3.67;;;;;;;16.71;66.46;101475.91;4990257;28;20269;-75
2022/09/07 07:14:14;;;;;;;6.03;3.90;;;;;;;16.77;67.02;101473.34;5010803;28;20628;-75
2022/09/07 07:16:39;;;;;;;5.30;4.27;;;;;;;16.78;68.79;101477.69;5007460;28;20179;-75
2022/09/07 07:19:05;;;;;;;5.37;4.10;;;;;;;16.83;69.47;101465.63;5009221;28;20191;-75
2022/09/07 07:21:30;;;;;;;6.43;3.90;;;;;;;16.84;69.33;101464.75;5010510;28;20222;-75
2022/09/07 07:23:56;;;;;;;7.47;4.07;;;;;;;16.85;70.24;101455.28;5010312;28;20212;-75
2022/09/07 07:26:25;;;;;;;8.23;4.27;;;;;;;16.85;69.32;101463.91;4991049;28;20198;-75
2022/09/07 07:28:53;;;;;;;6.83;4.13;;;;;;;16.87;70.19;101456.16;5010031;28;20194;-75
2022/09/07 07:31:23;;;;;;;7.50;4.37;;;;;;;16.87;70.70;101449.25;5010258;28;20245;-75
2022/09/07 07:33:51;;;;;;;4.90;3.93;;;;;;;16.82;69.55;101438.03;5010452;28;20190;-77
2022/09/07 07:36:19;;;;;;;7.17;4.03;;;;;;;16.85;69.43;101432.00;5010168;28;20644;-75
2022/09/07 07:38:50;;;;;;;7.50;4.00;;;;;;;16.84;70.08;101430.25;5010032;28;20202;-75
2022/09/07 07:41:18;;;;;;;5.37;4.13;;;;;;;16.84;70.77;101423.38;4990012;28;20227;-75
2022/09/07 07:43:44;;;;;;;5.83;3.80;;;;;;;16.81;70.59;101438.03;4991473;28;20184;-75
2022/09/07 07:46:15;;;;;;;6.50;3.87;;;;;;;16.78;71.28;101430.25;5010570;28;20202;-76
2022/09/07 07:48:41;;;;;;;7.07;4.50;;;;;;;16.70;72.92;101439.69;4992362;28;20205;-75
2022/09/07 07:51:12;;;;;;;8.57;4.50;;;;;;;16.66;72.54;101448.28;5009237;28;20195;-75
2022/09/07 07:53:38;;;;;;;5.87;4.40;;;;;;;16.57;73.79;101433.59;5021419;28;20222;-75
2022/09/07 07:56:05;;;;;;;6.17;4.50;;;;;;;16.53;74.75;101421.50;4992703;28;20187;-75
2022/09/07 07:58:33;;;;;;;6.40;4.40;;;;;;;16.53;74.87;101423.25;5009779;28;20588;-75
2022/09/07 08:01:07;;;;;;;6.87;4.77;;;;;;;16.47;74.94;101434.41;5009646;28;20190;-77
2022/09/07 08:03:38;;;;;;;6.77;4.97;;;;;;;16.43;75.33;101432.66;5009226;28;20190;-75
2022/09/07 08:06:06;;;;;;;6.30;4.20;;;;;;;16.43;76.05;101421.44;5004676;28;20564;-75
2022/09/07 08:08:34;;;;;;;6.33;4.77;;;;;;;16.43;76.73;101404.22;5009710;28;20194;-75
2022/09/07 08:11:07;;;;;;;8.40;4.57;;;;;;;16.40;77.48;101411.97;4975873;28;20194;-75
2022/09/07 08:13:34;;;;;;;7.47;4.80;;;;;;;16.33;76.98;101411.91;5009936;28;20186;-75
2022/09/07 08:16:00;;;;;;;8.47;4.40;;;;;;;16.29;77.81;101400.69;5008912;28;20249;-75
2022/09/07 08:18:26;;;;;;;5.47;4.70;;;;;;;16.31;77.72;101385.19;5009226;28;20218;-75
2022/09/07 08:20:51;;;;;;;5.10;4.60;;;;;;;16.33;77.88;101379.16;5011013;28;20269;-75
2022/09/07 08:23:19;;;;;;;8.70;4.97;;;;;;;16.28;77.83;101356.72;4997629;28;20570;-77
2022/09/07 08:25:52;;;;;;;7.23;4.73;;;;;;;16.25;79.13;101355.00;5013813;28;20194;-74
2022/09/07 08:28:19;;;;;;;8.37;4.73;;;;;;;16.25;78.48;101347.25;5010696;28;20722;-77
2022/09/07 08:30:44;;;;;;;6.30;4.47;;;;;;;16.29;78.48;101340.34;5012661;28;20175;-74
2022/09/07 08:33:10;;;;;;;5.47;4.80;;;;;;;16.35;78.63;101343.84;4990451;28;20261;-77
2022/09/07 08:35:35;;;;;;;5.00;4.50;;;;;;;16.37;77.83;101339.56;5016182;28;20702;-76
2022/09/07 08:38:01;;;;;;;7.23;4.60;;;;;;;16.42;77.76;101342.16;5013305;28;20238;-75
2022/09/07 08:40:26;;;;;;;8.37;4.73;;;;;;;16.51;77.53;101353.44;4998642;28;20245;-76
2022/09/07 08:43:02;;;;;;;7.23;4.30;;;;;;;16.66;75.86;101352.59;5015605;28;20209;-75
2022/09/07 08:45:36;;;;;;;7.90;4.40;;;;;;;16.94;75.50;101355.25;4995333;28;20296;-76
2022/09/07 08:48:04;;;;;;;8.37;4.50;;;;;;;17.09;73.97;101368.22;5015292;28;20183;-76
2022/09/07 08:50:53;;;;;;;5.83;4.50;;;;;;;17.17;73.22;101383.78;5001360;28;20269;-75
2022/09/07 08:53:20;;;;;;;4.63;3.93;;;;;;;17.36;72.78;101380.34;5014824;28;20203;-74
2022/09/07 08:55:51;;;;;;;7.80;3.57;;;;;;;17.74;72.64;101378.63;5012109;28;20605;-75
2022/09/07 08:58:23;;;;;;;5.63;4.40;;;;;;;17.95;71.34;101369.09;5016106;28;20218;-75
2022/09/07 09:00:49;;;;;;;7.10;4.57;;;;;;;18.42;70.37;101374.16;5011533;28;20195;-75
2022/09/07 09:03:22;;;;;;;5.43;3.70;;;;;;;18.63;68.63;101379.25;5016116;28;20219;-76
2022/09/07 09:06:02;;;;;;;6.50;3.60;;;;;;;18.60;67.96;101384.47;5009909;28;20838;-76
2022/09/07 09:09:04;;;;;;;9.20;4.07;;;;;;;18.60;66.50;101400.88;5010921;28;20182;-76
2022/09/07 09:12:02;;;;;;;6.50;4.20;;;;;;;18.93;65.44;101418.88;5014414;28;20771;-75
2022/09/07 09:14:46;;;;;;;4.87;3.10;;;;;;;18.98;64.34;101427.50;5008968;28;20183;-76
2022/09/07 09:17:27;;;;;;;7.87;3.60;;;;;;;18.87;63.86;101441.41;5012268;28;20215;-76
2022/09/07 09:20:23;;;;;;;4.43;3.37;;;;;;;18.90;63.27;101423.22;5012434;28;20197;-76
2022/09/07 09:22:56;;;;;;;4.67;3.77;;;;;;;18.79;62.84;101430.22;5011537;28;20693;-75
2022/09/07 09:25:34;;;;;;;6.73;4.30;;;;;;;19.15;62.98;101440.38;5011940;28;20230;-76
2022/09/07 09:28:00;;;;;;;6.90;3.57;;;;;;;19.68;61.04;101440.94;4997442;28;20578;-76
2022/09/07 09:30:27;;;;;;;8.43;4.10;;;;;;;19.77;59.65;101449.50;4992507;28;20183;-76
2022/09/07 09:33:18;;;;;;;4.80;3.80;;;;;;;21.70;55.50;101432.44;5007320;28;20212;-77
2022/09/07 09:35:48;;;;;;;6.47;3.88;;;;;;;23.95;49.57;101416.31;5007579;28;20319;-76
2022/09/07 09:38:32;;;;;;;4.55;3.75;;;;;;;24.68;48.38;101406.41;5008807;28;20215;-76
2022/09/07 09:41:10;;;;;;;5.00;3.95;;;;;;;23.65;48.48;101412.69;4994758;28;20279;-75
2022/09/07 09:43:56;;;;;;;5.95;3.90;;;;;;;22.49;51.24;101434.47;4990225;28;20198;-77
2022/09/07 09:46:23;;;;;;;5.93;4.47;;;;;;;22.20;53.16;101440.22;5005022;28;20183;-77
2022/09/07 09:48:53;;;;;;;6.57;4.43;;;;;;;23.79;49.29;101428.03;4990650;28;20537;-77
2022/09/07 09:51:19;;;;;;;7.35;3.92;;;;;;;26.79;44.23;101419.38;5003355;28;20242;-75
2022/09/07 09:53:56;;;;;;;4.88;3.83;;;;;;;27.86;41.82;101417.72;5007383;28;20187;-76
2022/09/07 09:56:23;;;;;;;5.18;3.70;;;;;;;27.37;41.77;101403.06;5005997;28;20654;-76
2022/09/07 09:58:49;;;;;;;6.95;4.03;;;;;;;27.95;40.24;101407.63;5006515;28;20307;-76
2022/09/07 10:01:23;;;;;;;4.10;3.67;;;;;;;28.97;38.66;101396.84;5005077;28;20270;-76
2022/09/07 10:03:49;;;;;;;6.78;4.45;;;;;;;28.46;38.42;101400.09;5005485;28;20187;-76
2022/09/07 10:06:17;;;;;;;3.88;3.47;;;;;;;30.36;36.00;101399.47;5007582;28;20278;-76
2022/09/07 10:08:56;;;;;;;3.90;3.60;;;;;;;31.75;34.19;101389.81;5005802;28;20180;-76
2022/09/07 10:11:44;;;;;;;6.30;3.88;;;;;;;30.49;35.10;101399.66;4990628;28;20306;-75
2022/09/07 10:14:24;;;;;;;5.97;3.55;;;;;;;29.23;37.67;101393.81;5004567;28;20206;-76
2022/09/07 10:16:50;;;;;;;5.55;3.83;;;;;;;28.30;40.19;101393.78;4989001;28;20180;-76
2022/09/07 10:19:51;;;;;;;7.18;4.35;;;;;;;28.10;40.08;101385.06;5005130;28;20685;-76
2022/09/07 10:22:44;;;;;;;5.10;4.13;;;;;;;28.03;39.85;101380.97;4907177;29;20225;-75
2022/09/07 10:25:26;;;;;;;5.43;4.40;;;;;;;27.76;41.72;101382.13;4965804;28;20219;-76
2022/09/07 10:28:14;;;;;;;5.70;4.68;;;;;;;27.18;42.81;101375.81;4985797;28;20188;-75
2022/09/07 10:31:05;;;;;;;6.50;4.63;;;;;;;26.52;43.40;101374.88;5005209;28;20638;-75
2022/09/07 10:34:01;;;;;;;6.50;4.70;;;;;;;26.41;43.39;101382.28;5009964;28;20190;-76
2022/09/07 10:36:40;;;;;;;5.80;4.40;;;;;;;26.46;44.13;101383.81;5005850;28;20195;-75
2022/09/07 10:39:12;;;;;;;6.00;4.57;;;;;;;26.84;43.68;101372.72;5009350;28;20203;-75
2022/09/07 10:41:58;;;;;;;8.65;4.65;;;;;;;26.83;44.11;101373.66;5006191;28;20751;-76
2022/09/07 10:44:50;;;;;;;6.70;4.53;;;;;;;26.97;43.67;101381.00;4986571;28;20234;-75
2022/09/07 10:47:36;;;;;;;5.00;3.88;;;;;;;27.18;43.28;101374.91;5007557;28;20175;-75
2022/09/07 10:50:30;;;;;;;3.90;3.60;;;;;;;27.40;42.56;101373.97;5008732;28;20190;-75
2022/09/07 10:53:17;;;;;;;5.05;4.32;;;;;;;26.62;43.88;101377.09;5008082;28;20222;-77
2022/09/07 10:56:00;;;;;;;8.40;4.45;;;;;;;27.37;42.81;101373.25;5007982;28;20186;-75
2022/09/07 10:58:32;;;;;;;6.22;4.47;;;;;;;27.56;43.66;101374.22;5007407;28;20207;-78
2022/09/07 11:01:21;;;;;;;6.45;3.95;;;;;;;27.55;42.14;101360.22;5010354;28;20192;-75
2022/09/07 11:04:32;;;;;;;5.00;4.35;;;;;;;27.71;42.61;101369.16;5009948;28;20180;-77
2022/09/07 11:07:24;;;;;;;6.88;4.20;;;;;;;27.72;43.03;101367.38;4989909;28;20238;-76
2022/09/07 11:09:55;;;;;;;6.22;4.20;;;;;;;27.52;42.82;101357.69;4970994;28;20639;-76
2022/09/07 11:12:26;;;;;;;5.28;4.22;;;;;;;27.73;42.04;101345.41;4992602;28;20210;-76
2022/09/07 11:15:15;;;;;;;4.80;4.20;;;;;;;27.44;43.61;101361.56;4992543;28;20202;-76
2022/09/07 11:17:48;;;;;;;4.40;4.00;;;;;;;28.02;42.24;101347.63;5008981;28;20226;-77
2022/09/07 11:20:32;;;;;;;4.90;4.40;;;;;;;27.29;42.85;101349.91;5007295;28;20838;-76
2022/09/07 11:23:27;;;;;;;5.82;4.63;;;;;;;28.02;42.59;101348.50;4991888;28;20313;-77
2022/09/07 11:26:16;;;;;;;6.57;4.88;;;;;;;27.58;42.39;101346.06;5009933;28;20286;-76
2022/09/07 11:28:48;;;;;;;7.57;4.32;;;;;;;27.60;42.62;101350.34;5007003;28;20196;-76
2022/09/07 11:31:29;;;;;;;6.05;4.70;;;;;;;27.73;43.41;101343.59;5010742;28;20281;-77
2022/09/07 11:34:19;;;;;;;5.85;5.25;;;;;;;27.84;43.28;101341.41;5008890;28;20233;-76
2022/09/07 11:36:52;;;;;;;6.32;4.70;;;;;;;28.05;43.32;101339.63;5009696;28;20193;-75
2022/09/07 11:39:54;;;;;;;5.72;5.13;;;;;;;28.20;42.71;101337.16;4992458;28;20195;-76
2022/09/07 11:42:25;;;;;;;5.72;4.93;;;;;;;27.20;43.94;101341.50;4941638;28;20234;-77
2022/09/07 11:45:03;;;;;;;5.75;5.03;;;;;;;27.84;43.55;101333.50;5010412;28;20197;-77